sensor_id;sensor_type;location;lat;lon;timestamp;pressure;altitude;pressure_sealevel;temperature;humidity
29385;BME280;16367;48.736;9.218;2023-01-27T00:00:42;-23115.31;;;-1.67;100.00
29385;BME280;16367;48.736;9.218;2023-01-27T00:02:44;-23115.63;;;-1.66;100.00
29385;BME280;16367;48.736;9.218;2023-01-27T00:04:47;-23114.50;;;-1.69;100.00
29385;BME280;16367;48.736;9.218;2023-01-27T00:06:50;-23114.50;;;-1.69;100.00
29385;BME280;16367;48.736;9.218;2023-01-27T00:08:53;-23117.06;;;-1.61;100.00
29385;BME280;16367;48.736;9.218;2023-01-27T00:11:01;-23110.50;;;-1.82;100.00
29385;BME280;16367;48.736;9.218;2023-01-27T00:13:21;-23110.50;;;-1.82;100.00
29385;BME280;16367;48.736;9.218;2023-01-27T00:15:33;-23119.63;;;-1.53;100.00
29385;BME280;16367;48.736;9.218;2023-01-27T00:17:36;-23116.09;;;-1.64;100.00
29385;BME280;16367;48.736;9.218;2023-01-27T00:19:39;-23120.09;;;-1.52;100.00
29385;BME280;16367;48.736;9.218;2023-01-27T00:21:45;-23114.50;;;-1.69;100.00
29385;BME280;16367;48.736;9.218;2023-01-27T00:24:05;-23112.91;;;-1.74;100.00
29385;BME280;16367;48.736;9.218;2023-01-27T00:26:29;-23117.38;;;-1.60;100.00
29385;BME280;16367;48.736;9.218;2023-01-27T00:28:31;-23116.75;;;-1.62;100.00
29385;BME280;16367;48.736;9.218;2023-01-27T00:30:34;-23116.09;;;-1.64;100.00
29385;BME280;16367;48.736;9.218;2023-01-27T00:32:37;-23105.22;;;-1.98;100.00
29385;BME280;16367;48.736;9.218;2023-01-27T00:34:58;-23113.53;;;-1.72;100.00
29385;BME280;16367;48.736;9.218;2023-01-27T00:37:00;-23116.41;;;-1.63;100.00
29385;BME280;16367;48.736;9.218;2023-01-27T00:39:04;-23112.91;;;-1.74;100.00
29385;BME280;16367;48.736;9.218;2023-01-27T00:41:07;-23108.09;;;-1.89;100.00
29385;BME280;16367;48.736;9.218;2023-01-27T00:43:24;-23115.31;;;-1.67;100.00
29385;BME280;16367;48.736;9.218;2023-01-27T00:45:27;-23114.81;;;-1.68;100.00
29385;BME280;16367;48.736;9.218;2023-01-27T00:47:48;-23119.94;;;-1.52;100.00
29385;BME280;16367;48.736;9.218;2023-01-27T00:49:50;-23114.19;;;-1.70;100.00
29385;BME280;16367;48.736;9.218;2023-01-27T00:51:53;-23117.53;;;-1.60;100.00
29385;BME280;16367;48.736;9.218;2023-01-27T00:53:56;-23109.84;;;-1.84;100.00
29385;BME280;16367;48.736;9.218;2023-01-27T00:55:59;-23109.06;;;-1.86;100.00
29385;BME280;16367;48.736;9.218;2023-01-27T00:58:02;-23106.50;;;-1.94;100.00
29385;BME280;16367;48.736;9.218;2023-01-27T01:00:08;-23109.38;;;-1.85;100.00
29385;BME280;16367;48.736;9.218;2023-01-27T01:02:12;-23111.31;;;-1.79;100.00
29385;BME280;16367;48.736;9.218;2023-01-27T01:04:15;-23113.53;;;-1.72;100.00
29385;BME280;16367;48.736;9.218;2023-01-27T01:06:18;-23116.41;;;-1.63;100.00
29385;BME280;16367;48.736;9.218;2023-01-27T01:08:21;-23112.25;;;-1.76;100.00
29385;BME280;16367;48.736;9.218;2023-01-27T01:10:24;-23106.66;;;-1.94;100.00
29385;BME280;16367;48.736;9.218;2023-01-27T01:12:27;-23114.81;;;-1.68;100.00
29385;BME280;16367;48.736;9.218;2023-01-27T01:14:29;-23110.66;;;-1.81;100.00
29385;BME280;16367;48.736;9.218;2023-01-27T01:16:33;-23111.94;;;-1.77;100.00
29385;BME280;16367;48.736;9.218;2023-01-27T01:18:36;-23114.03;;;-1.71;100.00
29385;BME280;16367;48.736;9.218;2023-01-27T01:20:42;-23103.78;;;-2.03;100.00
29385;BME280;16367;48.736;9.218;2023-01-27T01:22:45;-23104.41;;;-2.01;100.00
29385;BME280;16367;48.736;9.218;2023-01-27T01:24:48;-23109.06;;;-1.86;100.00
29385;BME280;16367;48.736;9.218;2023-01-27T01:26:51;-23112.56;;;-1.75;100.00
29385;BME280;16367;48.736;9.218;2023-01-27T01:28:53;-23104.41;;;-2.01;100.00
29385;BME280;16367;48.736;9.218;2023-01-27T01:31:02;-23110.97;;;-1.80;100.00
29385;BME280;16367;48.736;9.218;2023-01-27T01:33:07;-23113.88;;;-1.71;100.00
29385;BME280;16367;48.736;9.218;2023-01-27T01:35:09;-23110.50;;;-1.82;100.00
29385;BME280;16367;48.736;9.218;2023-01-27T01:37:12;-23115.16;;;-1.67;100.00
29385;BME280;16367;48.736;9.218;2023-01-27T01:39:15;-23112.75;;;-1.75;100.00
29385;BME280;16367;48.736;9.218;2023-01-27T01:41:18;-23120.09;;;-1.52;100.00
29385;BME280;16367;48.736;9.218;2023-01-27T01:43:21;-23118.66;;;-1.56;100.00
29385;BME280;16367;48.736;9.218;2023-01-27T01:45:47;-23109.84;;;-1.84;100.00
29385;BME280;16367;48.736;9.218;2023-01-27T01:47:50;-23108.25;;;-1.89;100.00
29385;BME280;16367;48.736;9.218;2023-01-27T01:49:54;-23106.97;;;-1.93;100.00
29385;BME280;16367;48.736;9.218;2023-01-27T01:51:59;-23105.53;;;-1.97;100.00
29385;BME280;16367;48.736;9.218;2023-01-27T01:54:06;-23109.06;;;-1.86;100.00
29385;BME280;16367;48.736;9.218;2023-01-27T01:56:14;-23108.75;;;-1.87;100.00
29385;BME280;16367;48.736;9.218;2023-01-27T01:58:18;-23104.59;;;-2.00;100.00
29385;BME280;16367;48.736;9.218;2023-01-27T02:00:21;-23111.47;;;-1.79;100.00
29385;BME280;16367;48.736;9.218;2023-01-27T02:02:24;-23115.16;;;-1.67;100.00
29385;BME280;16367;48.736;9.218;2023-01-27T02:04:33;-23112.56;;;-1.75;100.00
29385;BME280;16367;48.736;9.218;2023-01-27T02:06:44;-23105.88;;;-1.96;100.00
29385;BME280;16367;48.736;9.218;2023-01-27T02:08:53;-23103.31;;;-2.04;100.00
29385;BME280;16367;48.736;9.218;2023-01-27T02:10:56;-23098.97;;;-2.18;100.00
29385;BME280;16367;48.736;9.218;2023-01-27T02:12:59;-23098.19;;;-2.20;100.00
29385;BME280;16367;48.736;9.218;2023-01-27T02:15:03;-23102.19;;;-2.08;100.00
29385;BME280;16367;48.736;9.218;2023-01-27T02:17:06;-23099.47;;;-2.16;100.00
29385;BME280;16367;48.736;9.218;2023-01-27T02:19:16;-23098.34;;;-2.20;100.00
29385;BME280;16367;48.736;9.218;2023-01-27T02:21:22;-23101.88;;;-2.09;100.00
29385;BME280;16367;48.736;9.218;2023-01-27T02:23:54;-23100.09;;;-2.14;100.00
29385;BME280;16367;48.736;9.218;2023-01-27T02:26:02;-23108.09;;;-1.89;100.00
29385;BME280;16367;48.736;9.218;2023-01-27T02:28:07;-23111.78;;;-1.78;100.00
29385;BME280;16367;48.736;9.218;2023-01-27T02:30:10;-23097.53;;;-2.22;100.00
29385;BME280;16367;48.736;9.218;2023-01-27T02:32:21;-23095.63;;;-2.29;100.00
29385;BME280;16367;48.736;9.218;2023-01-27T02:34:27;-23098.03;;;-2.21;100.00
29385;BME280;16367;48.736;9.218;2023-01-27T02:36:31;-23102.66;;;-2.06;100.00
29385;BME280;16367;48.736;9.218;2023-01-27T02:38:39;-23097.84;;;-2.21;100.00
29385;BME280;16367;48.736;9.218;2023-01-27T02:40:46;-23103.63;;;-2.03;100.00
29385;BME280;16367;48.736;9.218;2023-01-27T02:42:53;-23100.09;;;-2.14;100.00
29385;BME280;16367;48.736;9.218;2023-01-27T02:44:56;-23101.38;;;-2.10;100.00
29385;BME280;16367;48.736;9.218;2023-01-27T02:46:59;-23106.81;;;-1.93;100.00
29385;BME280;16367;48.736;9.218;2023-01-27T02:49:02;-23109.38;;;-1.85;100.00
29385;BME280;16367;48.736;9.218;2023-01-27T02:51:05;-23102.97;;;-2.05;100.00
29385;BME280;16367;48.736;9.218;2023-01-27T02:53:08;-23104.25;;;-2.01;100.00
29385;BME280;16367;48.736;9.218;2023-01-27T02:55:10;-23102.66;;;-2.06;100.00
29385;BME280;16367;48.736;9.218;2023-01-27T02:57:14;-23107.94;;;-1.90;100.00
29385;BME280;16367;48.736;9.218;2023-01-27T02:59:18;-23100.75;;;-2.12;100.00
29385;BME280;16367;48.736;9.218;2023-01-27T03:01:21;-23105.53;;;-1.97;100.00
29385;BME280;16367;48.736;9.218;2023-01-27T03:03:25;-23103.31;;;-2.04;100.00
29385;BME280;16367;48.736;9.218;2023-01-27T03:05:28;-23107.13;;;-1.92;100.00
29385;BME280;16367;48.736;9.218;2023-01-27T03:07:30;-23118.34;;;-1.57;100.00
29385;BME280;16367;48.736;9.218;2023-01-27T03:09:33;-23109.69;;;-1.84;100.00
29385;BME280;16367;48.736;9.218;2023-01-27T03:11:36;-23112.56;;;-1.75;100.00
29385;BME280;16367;48.736;9.218;2023-01-27T03:13:56;-23116.09;;;-1.64;100.00
29385;BME280;16367;48.736;9.218;2023-01-27T03:16:00;-23115.94;;;-1.65;100.00
29385;BME280;16367;48.736;9.218;2023-01-27T03:18:20;-23118.66;;;-1.56;100.00
29385;BME280;16367;48.736;9.218;2023-01-27T03:20:23;-23119.78;;;-1.53;100.00
29385;BME280;16367;48.736;9.218;2023-01-27T03:22:25;-23111.13;;;-1.80;100.00
29385;BME280;16367;48.736;9.218;2023-01-27T03:24:28;-23102.97;;;-2.05;100.00
29385;BME280;16367;48.736;9.218;2023-01-27T03:26:31;-23105.22;;;-1.98;100.00
29385;BME280;16367;48.736;9.218;2023-01-27T03:28:34;-23106.34;;;-1.95;100.00
29385;BME280;16367;48.736;9.218;2023-01-27T03:30:37;-23104.91;;;-1.99;100.00
29385;BME280;16367;48.736;9.218;2023-01-27T03:32:41;-23105.22;;;-1.98;100.00
29385;BME280;16367;48.736;9.218;2023-01-27T03:34:47;-23104.25;;;-2.01;100.00
29385;BME280;16367;48.736;9.218;2023-01-27T03:36:50;-23104.59;;;-2.00;100.00
29385;BME280;16367;48.736;9.218;2023-01-27T03:39:10;-23105.88;;;-1.96;100.00
29385;BME280;16367;48.736;9.218;2023-01-27T03:41:30;-23101.06;;;-2.11;100.00
29385;BME280;16367;48.736;9.218;2023-01-27T03:43:51;-23102.66;;;-2.06;100.00
29385;BME280;16367;48.736;9.218;2023-01-27T03:46:11;-23107.13;;;-1.92;100.00
29385;BME280;16367;48.736;9.218;2023-01-27T03:48:19;-23105.69;;;-1.97;100.00
29385;BME280;16367;48.736;9.218;2023-01-27T03:50:21;-23107.31;;;-1.92;100.00
29385;BME280;16367;48.736;9.218;2023-01-27T03:52:31;-23107.13;;;-1.92;100.00
29385;BME280;16367;48.736;9.218;2023-01-27T03:54:34;-23108.09;;;-1.89;100.00
29385;BME280;16367;48.736;9.218;2023-01-27T03:56:37;-23114.81;;;-1.68;100.00
29385;BME280;16367;48.736;9.218;2023-01-27T03:58:39;-23105.38;;;-1.98;100.00
29385;BME280;16367;48.736;9.218;2023-01-27T04:00:43;-23103.63;;;-2.03;100.00
29385;BME280;16367;48.736;9.218;2023-01-27T04:02:46;-23099.16;;;-2.17;100.00
29385;BME280;16367;48.736;9.218;2023-01-27T04:05:08;-23102.34;;;-2.07;100.00
29385;BME280;16367;48.736;9.218;2023-01-27T04:07:29;-23104.91;;;-1.99;100.00
29385;BME280;16367;48.736;9.218;2023-01-27T04:09:33;-23102.66;;;-2.06;100.00
29385;BME280;16367;48.736;9.218;2023-01-27T04:11:37;-23101.69;;;-2.09;100.00
29385;BME280;16367;48.736;9.218;2023-01-27T04:14:06;-23104.41;;;-2.01;100.00
29385;BME280;16367;48.736;9.218;2023-01-27T04:16:10;-23102.19;;;-2.08;100.00
29385;BME280;16367;48.736;9.218;2023-01-27T04:18:12;-23104.09;;;-2.02;100.00
29385;BME280;16367;48.736;9.218;2023-01-27T04:20:17;-23105.22;;;-1.98;100.00
29385;BME280;16367;48.736;9.218;2023-01-27T04:22:20;-23107.47;;;-1.91;100.00
29385;BME280;16367;48.736;9.218;2023-01-27T04:24:23;-23104.91;;;-1.99;100.00
29385;BME280;16367;48.736;9.218;2023-01-27T04:26:27;-23107.94;;;-1.90;100.00
29385;BME280;16367;48.736;9.218;2023-01-27T04:28:33;-23110.19;;;-1.83;100.00
29385;BME280;16367;48.736;9.218;2023-01-27T04:30:45;-23103.16;;;-2.05;100.00
29385;BME280;16367;48.736;9.218;2023-01-27T04:32:48;-23106.34;;;-1.95;100.00
29385;BME280;16367;48.736;9.218;2023-01-27T04:34:50;-23105.22;;;-1.98;100.00
29385;BME280;16367;48.736;9.218;2023-01-27T04:36:55;-23102.97;;;-2.05;100.00
29385;BME280;16367;48.736;9.218;2023-01-27T04:38:58;-23103.16;;;-2.05;100.00
29385;BME280;16367;48.736;9.218;2023-01-27T04:41:00;-23102.81;;;-2.06;100.00
29385;BME280;16367;48.736;9.218;2023-01-27T04:43:03;-23106.66;;;-1.94;100.00
29385;BME280;16367;48.736;9.218;2023-01-27T04:45:08;-23100.59;;;-2.13;100.00
29385;BME280;16367;48.736;9.218;2023-01-27T04:47:11;-23104.91;;;-1.99;100.00
29385;BME280;16367;48.736;9.218;2023-01-27T04:49:13;-23110.81;;;-1.81;100.00
29385;BME280;16367;48.736;9.218;2023-01-27T04:51:16;-23109.22;;;-1.86;100.00
29385;BME280;16367;48.736;9.218;2023-01-27T04:53:20;-23107.78;;;-1.90;100.00
29385;BME280;16367;48.736;9.218;2023-01-27T04:55:23;-23109.06;;;-1.86;100.00
29385;BME280;16367;48.736;9.218;2023-01-27T04:57:26;-23106.50;;;-1.94;100.00
29385;BME280;16367;48.736;9.218;2023-01-27T04:59:29;-23113.69;;;-1.72;100.00
29385;BME280;16367;48.736;9.218;2023-01-27T05:01:32;-23108.41;;;-1.88;100.00
29385;BME280;16367;48.736;9.218;2023-01-27T05:03:34;-23115.78;;;-1.65;100.00
29385;BME280;16367;48.736;9.218;2023-01-27T05:05:40;-23101.53;;;-2.10;100.00
29385;BME280;16367;48.736;9.218;2023-01-27T05:07:43;-23112.56;;;-1.75;100.00
29385;BME280;16367;48.736;9.218;2023-01-27T05:09:47;-23106.34;;;-1.95;100.00
29385;BME280;16367;48.736;9.218;2023-01-27T05:11:50;-23105.53;;;-1.97;100.00
29385;BME280;16367;48.736;9.218;2023-01-27T05:13:52;-23111.31;;;-1.79;100.00
29385;BME280;16367;48.736;9.218;2023-01-27T05:16:06;-23106.03;;;-1.96;100.00
29385;BME280;16367;48.736;9.218;2023-01-27T05:18:09;-23110.34;;;-1.82;100.00
29385;BME280;16367;48.736;9.218;2023-01-27T05:20:12;-23111.78;;;-1.78;100.00
29385;BME280;16367;48.736;9.218;2023-01-27T05:22:14;-23110.81;;;-1.81;100.00
29385;BME280;16367;48.736;9.218;2023-01-27T05:24:17;-23105.22;;;-1.98;100.00
29385;BME280;16367;48.736;9.218;2023-01-27T05:26:23;-23114.81;;;-1.68;100.00
29385;BME280;16367;48.736;9.218;2023-01-27T05:28:26;-23111.31;;;-1.79;100.00
29385;BME280;16367;48.736;9.218;2023-01-27T05:30:29;-23104.25;;;-2.01;100.00
29385;BME280;16367;48.736;9.218;2023-01-27T05:32:32;-23107.78;;;-1.90;100.00
29385;BME280;16367;48.736;9.218;2023-01-27T05:34:35;-23108.25;;;-1.89;100.00
29385;BME280;16367;48.736;9.218;2023-01-27T05:36:37;-23109.22;;;-1.86;100.00
29385;BME280;16367;48.736;9.218;2023-01-27T05:38:40;-23107.78;;;-1.90;100.00
29385;BME280;16367;48.736;9.218;2023-01-27T05:40:43;-23110.50;;;-1.82;100.00
29385;BME280;16367;48.736;9.218;2023-01-27T05:42:47;-23111.94;;;-1.77;100.00
29385;BME280;16367;48.736;9.218;2023-01-27T05:44:49;-23110.03;;;-1.83;100.00
29385;BME280;16367;48.736;9.218;2023-01-27T05:46:52;-23104.59;;;-2.00;100.00
29385;BME280;16367;48.736;9.218;2023-01-27T05:48:58;-23111.13;;;-1.80;100.00
29385;BME280;16367;48.736;9.218;2023-01-27T05:51:01;-23110.66;;;-1.81;100.00
29385;BME280;16367;48.736;9.218;2023-01-27T05:53:04;-23117.38;;;-1.60;100.00
29385;BME280;16367;48.736;9.218;2023-01-27T05:55:07;-23118.03;;;-1.58;100.00
29385;BME280;16367;48.736;9.218;2023-01-27T05:57:09;-23118.66;;;-1.56;100.00
29385;BME280;16367;48.736;9.218;2023-01-27T05:59:13;-23114.34;;;-1.70;100.00
29385;BME280;16367;48.736;9.218;2023-01-27T06:01:18;-23114.19;;;-1.70;100.00
29385;BME280;16367;48.736;9.218;2023-01-27T06:03:22;-23109.69;;;-1.84;100.00
29385;BME280;16367;48.736;9.218;2023-01-27T06:05:25;-23110.19;;;-1.83;100.00
29385;BME280;16367;48.736;9.218;2023-01-27T06:07:28;-23110.97;;;-1.80;100.00
29385;BME280;16367;48.736;9.218;2023-01-27T06:09:30;-23110.19;;;-1.83;100.00
29385;BME280;16367;48.736;9.218;2023-01-27T06:11:33;-23116.09;;;-1.64;100.00
29385;BME280;16367;48.736;9.218;2023-01-27T06:13:36;-23113.53;;;-1.72;100.00
29385;BME280;16367;48.736;9.218;2023-01-27T06:15:42;-23112.09;;;-1.77;100.00
29385;BME280;16367;48.736;9.218;2023-01-27T06:17:45;-23110.19;;;-1.83;100.00
29385;BME280;16367;48.736;9.218;2023-01-27T06:19:51;-23106.97;;;-1.93;100.00
29385;BME280;16367;48.736;9.218;2023-01-27T06:21:53;-23111.31;;;-1.79;100.00
29385;BME280;16367;48.736;9.218;2023-01-27T06:23:56;-23118.66;;;-1.56;100.00
29385;BME280;16367;48.736;9.218;2023-01-27T06:26:01;-23114.34;;;-1.70;100.00
29385;BME280;16367;48.736;9.218;2023-01-27T06:28:05;-23113.38;;;-1.73;100.00
29385;BME280;16367;48.736;9.218;2023-01-27T06:30:13;-23111.78;;;-1.78;100.00
29385;BME280;16367;48.736;9.218;2023-01-27T06:32:17;-23108.09;;;-1.89;100.00
29385;BME280;16367;48.736;9.218;2023-01-27T06:34:19;-23113.22;;;-1.73;100.00
29385;BME280;16367;48.736;9.218;2023-01-27T06:36:22;-23116.75;;;-1.62;100.00
29385;BME280;16367;48.736;9.218;2023-01-27T06:38:25;-23113.69;;;-1.72;100.00
29385;BME280;16367;48.736;9.218;2023-01-27T06:40:29;-23111.47;;;-1.79;100.00
29385;BME280;16367;48.736;9.218;2023-01-27T06:42:33;-23113.22;;;-1.73;100.00
29385;BME280;16367;48.736;9.218;2023-01-27T06:44:35;-23107.63;;;-1.91;100.00
29385;BME280;16367;48.736;9.218;2023-01-27T06:46:38;-23117.22;;;-1.61;100.00
29385;BME280;16367;48.736;9.218;2023-01-27T06:48:42;-23116.41;;;-1.63;100.00
29385;BME280;16367;48.736;9.218;2023-01-27T06:50:45;-23112.91;;;-1.74;100.00
29385;BME280;16367;48.736;9.218;2023-01-27T06:52:48;-23119.31;;;-1.54;100.00
29385;BME280;16367;48.736;9.218;2023-01-27T06:54:51;-23118.03;;;-1.58;100.00
29385;BME280;16367;48.736;9.218;2023-01-27T06:56:53;-23118.50;;;-1.57;100.00
29385;BME280;16367;48.736;9.218;2023-01-27T06:58:56;-23107.63;;;-1.91;100.00
29385;BME280;16367;48.736;9.218;2023-01-27T07:00:59;-23113.53;;;-1.72;100.00
29385;BME280;16367;48.736;9.218;2023-01-27T07:03:02;-23111.94;;;-1.77;100.00
29385;BME280;16367;48.736;9.218;2023-01-27T07:05:07;-23109.84;;;-1.84;100.00
29385;BME280;16367;48.736;9.218;2023-01-27T07:07:09;-23112.91;;;-1.74;100.00
29385;BME280;16367;48.736;9.218;2023-01-27T07:09:12;-23112.25;;;-1.76;100.00
29385;BME280;16367;48.736;9.218;2023-01-27T07:11:17;-23114.81;;;-1.68;100.00
29385;BME280;16367;48.736;9.218;2023-01-27T07:13:19;-23110.03;;;-1.83;100.00
29385;BME280;16367;48.736;9.218;2023-01-27T07:15:22;-23106.97;;;-1.93;100.00
29385;BME280;16367;48.736;9.218;2023-01-27T07:17:25;-23110.66;;;-1.81;100.00
29385;BME280;16367;48.736;9.218;2023-01-27T07:19:27;-23110.66;;;-1.81;100.00
29385;BME280;16367;48.736;9.218;2023-01-27T07:21:31;-23116.41;;;-1.63;100.00
29385;BME280;16367;48.736;9.218;2023-01-27T07:23:34;-23111.13;;;-1.80;100.00
29385;BME280;16367;48.736;9.218;2023-01-27T07:25:37;-23116.09;;;-1.64;100.00
29385;BME280;16367;48.736;9.218;2023-01-27T07:27:40;-23116.75;;;-1.62;100.00
29385;BME280;16367;48.736;9.218;2023-01-27T07:29:43;-23112.91;;;-1.74;100.00
29385;BME280;16367;48.736;9.218;2023-01-27T07:31:46;-23112.56;;;-1.75;100.00
29385;BME280;16367;48.736;9.218;2023-01-27T07:33:48;-23112.91;;;-1.74;100.00
29385;BME280;16367;48.736;9.218;2023-01-27T07:35:51;-23113.06;;;-1.74;100.00
29385;BME280;16367;48.736;9.218;2023-01-27T07:37:57;-23105.53;;;-1.97;100.00
29385;BME280;16367;48.736;9.218;2023-01-27T07:40:00;-23113.88;;;-1.71;100.00
29385;BME280;16367;48.736;9.218;2023-01-27T07:42:03;-23112.44;;;-1.76;100.00
29385;BME280;16367;48.736;9.218;2023-01-27T07:44:05;-23117.53;;;-1.60;100.00
29385;BME280;16367;48.736;9.218;2023-01-27T07:46:08;-23123.47;;;-1.41;100.00
29385;BME280;16367;48.736;9.218;2023-01-27T07:48:11;-23122.97;;;-1.42;100.00
29385;BME280;16367;48.736;9.218;2023-01-27T07:50:14;-23114.19;;;-1.70;100.00
29385;BME280;16367;48.736;9.218;2023-01-27T07:52:17;-23112.25;;;-1.76;100.00
29385;BME280;16367;48.736;9.218;2023-01-27T07:54:21;-23117.22;;;-1.61;100.00
29385;BME280;16367;48.736;9.218;2023-01-27T07:56:26;-23117.69;;;-1.59;100.00
29385;BME280;16367;48.736;9.218;2023-01-27T07:58:29;-23118.66;;;-1.56;100.00
29385;BME280;16367;48.736;9.218;2023-01-27T08:00:32;-23115.78;;;-1.65;100.00
29385;BME280;16367;48.736;9.218;2023-01-27T08:02:35;-23115.16;;;-1.67;100.00
29385;BME280;16367;48.736;9.218;2023-01-27T08:04:37;-23118.66;;;-1.56;100.00
29385;BME280;16367;48.736;9.218;2023-01-27T08:06:53;-23113.38;;;-1.73;100.00
29385;BME280;16367;48.736;9.218;2023-01-27T08:08:56;-23109.38;;;-1.85;100.00
29385;BME280;16367;48.736;9.218;2023-01-27T08:11:00;-23114.19;;;-1.70;100.00
29385;BME280;16367;48.736;9.218;2023-01-27T08:13:04;-23117.22;;;-1.61;100.00
29385;BME280;16367;48.736;9.218;2023-01-27T08:15:07;-23116.41;;;-1.63;100.00
29385;BME280;16367;48.736;9.218;2023-01-27T08:17:10;-23114.03;;;-1.71;100.00
29385;BME280;16367;48.736;9.218;2023-01-27T08:19:13;-23118.97;;;-1.55;100.00
29385;BME280;16367;48.736;9.218;2023-01-27T08:21:16;-23109.69;;;-1.84;100.00
29385;BME280;16367;48.736;9.218;2023-01-27T08:23:19;-23111.31;;;-1.79;100.00
29385;BME280;16367;48.736;9.218;2023-01-27T08:25:22;-23112.44;;;-1.76;100.00
29385;BME280;16367;48.736;9.218;2023-01-27T08:27:26;-23118.34;;;-1.57;100.00
29385;BME280;16367;48.736;9.218;2023-01-27T08:29:29;-23114.03;;;-1.71;100.00
29385;BME280;16367;48.736;9.218;2023-01-27T08:31:33;-23119.94;;;-1.52;100.00
29385;BME280;16367;48.736;9.218;2023-01-27T08:33:36;-23122.19;;;-1.45;100.00
29385;BME280;16367;48.736;9.218;2023-01-27T08:35:39;-23114.50;;;-1.69;100.00
29385;BME280;16367;48.736;9.218;2023-01-27T08:37:45;-23118.03;;;-1.58;100.00
29385;BME280;16367;48.736;9.218;2023-01-27T08:39:49;-23116.75;;;-1.62;100.00
29385;BME280;16367;48.736;9.218;2023-01-27T08:41:52;-23114.19;;;-1.70;100.00
29385;BME280;16367;48.736;9.218;2023-01-27T08:43:57;-23114.81;;;-1.68;100.00
29385;BME280;16367;48.736;9.218;2023-01-27T08:46:00;-23114.50;;;-1.69;100.00
29385;BME280;16367;48.736;9.218;2023-01-27T08:48:03;-23115.63;;;-1.66;100.00
29385;BME280;16367;48.736;9.218;2023-01-27T08:50:08;-23113.22;;;-1.73;100.00
29385;BME280;16367;48.736;9.218;2023-01-27T08:52:11;-23115.16;;;-1.67;100.00
29385;BME280;16367;48.736;9.218;2023-01-27T08:54:14;-23124.09;;;-1.39;100.00
29385;BME280;16367;48.736;9.218;2023-01-27T08:56:17;-23117.38;;;-1.60;100.00
29385;BME280;16367;48.736;9.218;2023-01-27T08:58:20;-23118.97;;;-1.55;100.00
29385;BME280;16367;48.736;9.218;2023-01-27T09:00:24;-23120.59;;;-1.50;100.00
29385;BME280;16367;48.736;9.218;2023-01-27T09:02:27;-23115.78;;;-1.65;100.00
29385;BME280;16367;48.736;9.218;2023-01-27T09:04:30;-23118.50;;;-1.57;100.00
29385;BME280;16367;48.736;9.218;2023-01-27T09:06:32;-23117.38;;;-1.60;100.00
29385;BME280;16367;48.736;9.218;2023-01-27T09:08:35;-23123.78;;;-1.40;100.00
29385;BME280;16367;48.736;9.218;2023-01-27T09:10:38;-23125.53;;;-1.34;100.00
29385;BME280;16367;48.736;9.218;2023-01-27T09:12:43;-23118.34;;;-1.57;100.00
29385;BME280;16367;48.736;9.218;2023-01-27T09:14:45;-23117.22;;;-1.61;100.00
29385;BME280;16367;48.736;9.218;2023-01-27T09:16:49;-23117.38;;;-1.60;100.00
29385;BME280;16367;48.736;9.218;2023-01-27T09:18:52;-23117.69;;;-1.59;100.00
29385;BME280;16367;48.736;9.218;2023-01-27T09:20:55;-23119.94;;;-1.52;100.00
29385;BME280;16367;48.736;9.218;2023-01-27T09:22:57;-23121.22;;;-1.48;100.00
29385;BME280;16367;48.736;9.218;2023-01-27T09:25:01;-23115.78;;;-1.65;100.00
29385;BME280;16367;48.736;9.218;2023-01-27T09:27:04;-23113.69;;;-1.72;100.00
29385;BME280;16367;48.736;9.218;2023-01-27T09:29:06;-23110.03;;;-1.83;100.00
29385;BME280;16367;48.736;9.218;2023-01-27T09:31:09;-23115.47;;;-1.66;100.00
29385;BME280;16367;48.736;9.218;2023-01-27T09:33:14;-23114.66;;;-1.69;100.00
29385;BME280;16367;48.736;9.218;2023-01-27T09:35:17;-23115.78;;;-1.65;100.00
29385;BME280;16367;48.736;9.218;2023-01-27T09:37:20;-23118.97;;;-1.55;100.00
29385;BME280;16367;48.736;9.218;2023-01-27T09:39:23;-23119.13;;;-1.55;100.00
29385;BME280;16367;48.736;9.218;2023-01-27T09:41:35;-23113.38;;;-1.73;100.00
29385;BME280;16367;48.736;9.218;2023-01-27T09:43:59;-23117.69;;;-1.59;100.00
29385;BME280;16367;48.736;9.218;2023-01-27T09:46:25;-23124.91;;;-1.36;100.00
29385;BME280;16367;48.736;9.218;2023-01-27T09:48:49;-23116.75;;;-1.62;100.00
29385;BME280;16367;48.736;9.218;2023-01-27T09:51:02;-23121.53;;;-1.47;100.00
29385;BME280;16367;48.736;9.218;2023-01-27T09:53:29;-23116.25;;;-1.64;100.00
29385;BME280;16367;48.736;9.218;2023-01-27T09:55:40;-23115.63;;;-1.66;100.00
29385;BME280;16367;48.736;9.218;2023-01-27T09:57:50;-23116.91;;;-1.62;100.00
29385;BME280;16367;48.736;9.218;2023-01-27T10:00:04;-23126.50;;;-1.31;100.00
29385;BME280;16367;48.736;9.218;2023-01-27T10:02:21;-23128.75;;;-1.24;100.00
29385;BME280;16367;48.736;9.218;2023-01-27T10:05:07;-23122.50;;;-1.44;100.00
29385;BME280;16367;48.736;9.218;2023-01-27T10:07:34;-23126.81;;;-1.30;100.00
29385;BME280;16367;48.736;9.218;2023-01-27T10:12:25;-23122.97;;;-1.42;100.00
29385;BME280;16367;48.736;9.218;2023-01-27T10:14:37;-23124.09;;;-1.39;100.00
29385;BME280;16367;48.736;9.218;2023-01-27T10:16:54;-23126.50;;;-1.31;100.00
29385;BME280;16367;48.736;9.218;2023-01-27T10:19:19;-23124.09;;;-1.39;100.00
29385;BME280;16367;48.736;9.218;2023-01-27T10:21:34;-23120.25;;;-1.51;100.00
29385;BME280;16367;48.736;9.218;2023-01-27T10:23:48;-23122.19;;;-1.45;100.00
29385;BME280;16367;48.736;9.218;2023-01-27T10:26:03;-23123.63;;;-1.40;100.00
29385;BME280;16367;48.736;9.218;2023-01-27T10:28:11;-23119.94;;;-1.52;100.00
29385;BME280;16367;48.736;9.218;2023-01-27T10:30:19;-23120.91;;;-1.49;100.00
29385;BME280;16367;48.736;9.218;2023-01-27T10:32:29;-23134.03;;;-1.08;100.00
29385;BME280;16367;48.736;9.218;2023-01-27T10:34:36;-23130.66;;;-1.18;100.00
29385;BME280;16367;48.736;9.218;2023-01-27T10:36:45;-23130.97;;;-1.17;100.00
29385;BME280;16367;48.736;9.218;2023-01-27T10:39:02;-23123.78;;;-1.40;100.00
29385;BME280;16367;48.736;9.218;2023-01-27T10:41:18;-23133.06;;;-1.11;100.00
29385;BME280;16367;48.736;9.218;2023-01-27T10:43:29;-23133.69;;;-1.09;100.00
29385;BME280;16367;48.736;9.218;2023-01-27T10:45:36;-23132.41;;;-1.13;100.00
29385;BME280;16367;48.736;9.218;2023-01-27T10:47:53;-23130.81;;;-1.18;100.00
29385;BME280;16367;48.736;9.218;2023-01-27T10:50:02;-23131.13;;;-1.17;100.00
29385;BME280;16367;48.736;9.218;2023-01-27T10:52:12;-23132.09;;;-1.14;100.00